Time;durP1;ratioP1;P1;durP2;ratioP2;P2;SDS_P1;SDS_P2;PMS_P1;PMS_P2;Temp;Humidity;BMP_temperature;BMP_pressure;BME280_temperature;BME280_humidity;BME280_pressure;Samples;Min_cycle;Max_cycle;Signal;HPM_P1;HPM_P2
2022/11/10 00:01:49;;;;;;;20.00;7.13;;;;;;;7.99;100.00;150354.47;5068915;28;20437;-63
2022/11/10 00:04:14;;;;;;;17.73;7.35;;;;;;;7.97;100.00;150348.25;5069831;28;20024;-63
2022/11/10 00:06:40;;;;;;;17.45;7.55;;;;;;;7.98;100.00;148947.09;5068358;28;20045;-63
2022/11/10 00:09:05;;;;;;;20.98;7.03;;;;;;;8.00;100.00;147199.25;5070369;28;20031;-63
2022/11/10 00:11:31;;;;;;;15.65;8.05;;;;;;;8.05;100.00;144405.19;5068455;28;20050;-63
2022/11/10 00:16:59;;;;;;;16.70;6.75;;;;;;;8.04;100.00;141951.16;5072205;28;20094;-62
2022/11/10 00:19:25;;;;;;;16.02;5.97;;;;;;;8.00;100.00;142991.59;5074080;28;20112;-62
2022/11/10 00:21:51;;;;;;;14.90;5.82;;;;;;;7.96;100.00;143682.88;5072595;28;20152;-62
2022/11/10 00:24:17;;;;;;;35.85;8.40;;;;;;;7.91;100.00;144373.00;5073851;28;20413;-62
2022/11/10 00:26:42;;;;;;;17.50;7.20;;;;;;;7.86;100.00;145063.13;5071514;28;20112;-63
2022/11/10 00:29:07;;;;;;;13.98;6.78;;;;;;;7.87;100.00;143663.91;5073640;28;20024;-62
2022/11/10 00:31:33;;;;;;;10.25;6.10;;;;;;;7.84;100.00;143306.50;5072542;28;20059;-62
2022/11/10 00:33:58;;;;;;;33.95;9.70;;;;;;;7.87;100.00;142262.75;5073527;28;20024;-62
2022/11/10 00:36:24;;;;;;;11.48;6.20;;;;;;;7.84;100.00;142605.94;5072171;28;20045;-62
2022/11/10 00:38:50;;;;;;;28.83;8.05;;;;;;;7.77;100.00;142590.66;5073075;28;20088;-63
2022/11/10 00:41:15;;;;;;;22.92;9.45;;;;;;;7.86;100.00;140859.72;5072044;28;20479;-63
2022/11/10 00:43:41;;;;;;;27.67;7.93;;;;;;;7.86;100.00;139108.44;5073307;28;20027;-63
2022/11/10 00:46:06;;;;;;;20.55;7.13;;;;;;;7.85;100.00;137706.59;5072150;28;20029;-61
2022/11/10 00:48:31;;;;;;;22.75;9.35;;;;;;;7.82;100.00;137000.25;5073574;28;20336;-63
2022/11/10 00:50:57;;;;;;;29.02;8.40;;;;;;;7.76;100.00;137337.53;5073194;28;20025;-63
2022/11/10 00:53:22;;;;;;;21.00;7.22;;;;;;;7.76;100.00;136638.09;5072026;28;20037;-63
2022/11/10 00:55:48;;;;;;;16.15;7.72;;;;;;;7.78;100.00;134546.03;5072554;28;20037;-63
2022/11/10 00:58:13;;;;;;;23.40;7.88;;;;;;;7.79;100.00;133149.22;5071911;28;20502;-63
2022/11/10 01:00:39;;;;;;;14.73;7.68;;;;;;;7.74;100.00;131741.00;5073399;28;20028;-63
2022/11/10 01:03:04;;;;;;;17.20;6.43;;;;;;;7.84;100.00;131064.09;5071615;28;20112;-63
2022/11/10 01:05:33;;;;;;;21.45;7.22;;;;;;;7.75;100.00;131044.69;5073172;28;20029;-63
2022/11/10 01:07:59;;;;;;;14.35;7.90;;;;;;;7.78;100.00;131749.69;5071742;28;20118;-63
2022/11/10 01:10:25;;;;;;;17.02;6.43;;;;;;;7.76;100.00;132793.31;5072978;28;20016;-64
2022/11/10 01:12:50;;;;;;;20.58;8.82;;;;;;;7.73;100.00;134184.34;5071325;28;20044;-64
2022/11/10 01:15:16;;;;;;;23.50;9.00;;;;;;;7.71;100.00;134878.88;5073153;28;20033;-63
2022/11/10 01:17:41;;;;;;;26.42;10.05;;;;;;;7.69;100.00;135573.53;5071402;28;20052;-64
2022/11/10 01:20:07;;;;;;;21.45;8.27;;;;;;;7.67;100.00;136268.22;5072872;28;20062;-64
2022/11/10 01:22:33;;;;;;;13.15;7.43;;;;;;;7.65;100.00;135565.72;5071289;28;20046;-64
2022/11/10 01:24:58;;;;;;;23.27;9.10;;;;;;;7.62;100.00;135909.69;5072393;28;20025;-64
2022/11/10 01:27:24;;;;;;;16.63;7.03;;;;;;;7.58;100.00;136250.25;5070493;28;20036;-64
2022/11/10 01:29:49;;;;;;;16.48;8.40;;;;;;;7.57;100.00;136248.00;5070984;28;20023;-64
2022/11/10 01:32:14;;;;;;;24.63;8.93;;;;;;;7.54;100.00;136241.28;5071583;28;20052;-64
2022/11/10 01:34:40;;;;;;;18.27;7.15;;;;;;;7.52;100.00;136586.31;5071633;28;20020;-64
2022/11/10 01:37:05;;;;;;;20.50;6.80;;;;;;;7.51;100.00;135535.56;5071077;28;20253;-65
2022/11/10 01:39:30;;;;;;;13.95;6.82;;;;;;;7.50;100.00;134834.47;5072567;28;20025;-64
2022/11/10 01:41:56;;;;;;;19.80;9.35;;;;;;;7.44;100.00;134122.50;5070618;28;20045;-62
2022/11/10 01:44:23;;;;;;;15.30;8.43;;;;;;;7.47;100.00;133779.84;5072438;28;20036;-62
2022/11/10 01:46:49;;;;;;;26.42;7.50;;;;;;;7.40;100.00;134113.69;5071300;28;20407;-63
2022/11/10 01:49:18;;;;;;;28.65;10.05;;;;;;;7.38;100.00;133411.84;5071945;28;20024;-64
2022/11/10 01:51:50;;;;;;;25.17;7.22;;;;;;;7.39;100.00;132016.38;5070500;28;20044;-63
2022/11/10 01:54:20;;;;;;;26.23;10.15;;;;;;;7.36;100.00;130962.75;5071906;28;20028;-62
2022/11/10 01:56:51;;;;;;;29.05;7.43;;;;;;;7.40;100.00;128530.09;5070572;28;20044;-63
2022/11/10 01:59:22;;;;;;;24.88;9.50;;;;;;;7.42;100.00;126789.56;5072550;28;20107;-62
2022/11/10 02:01:49;;;;;;;17.13;8.55;;;;;;;7.38;100.00;126084.03;5070223;28;20615;-62
2022/11/10 02:04:18;;;;;;;25.35;9.93;;;;;;;7.40;100.00;125042.53;5071562;28;20024;-62
2022/11/10 02:06:45;;;;;;;14.77;8.13;;;;;;;7.36;100.00;124338.44;5070303;28;20574;-62
2022/11/10 02:09:11;;;;;;;26.55;8.27;;;;;;;7.33;100.00;123286.19;5071371;28;20039;-62
2022/11/10 02:11:38;;;;;;;27.23;8.70;;;;;;;7.35;100.00;122941.91;5069868;28;20044;-62
2022/11/10 02:14:03;;;;;;;52.08;12.40;;;;;;;7.34;100.00;122243.38;5072126;28;20033;-62
2022/11/10 02:16:30;;;;;;;22.88;8.63;;;;;;;7.26;100.00;121533.00;5070471;28;20041;-62
2022/11/10 02:18:55;;;;;;;29.10;10.25;;;;;;;7.35;100.00;120156.47;5071211;28;20021;-62
2022/11/10 02:21:21;;;;;;;24.27;8.27;;;;;;;7.29;100.00;119798.59;5070487;28;20161;-62
2022/11/10 02:23:49;;;;;;;26.95;11.13;;;;;;;7.35;100.00;118764.47;5071673;28;20466;-62
2022/11/10 02:26:19;;;;;;;26.23;10.10;;;;;;;7.35;100.00;117026.09;5069692;28;20086;-62
2022/11/10 02:28:45;;;;;;;27.95;8.68;;;;;;;7.36;100.00;115288.41;5071549;28;20395;-61
2022/11/10 02:31:11;;;;;;;20.73;9.65;;;;;;;7.44;100.00;113566.34;5069652;28;20035;-62
2022/11/10 02:33:37;;;;;;;21.35;9.70;;;;;;;7.47;100.00;112528.41;5070767;28;20032;-62
2022/11/10 02:36:03;;;;;;;24.63;9.68;;;;;;;7.49;100.00;111488.84;5069989;28;20029;-62
2022/11/10 02:38:28;;;;;;;25.10;9.55;;;;;;;7.47;100.00;110791.38;5071685;28;20459;-64
2022/11/10 02:40:53;;;;;;;29.27;10.95;;;;;;;7.52;100.00;110105.78;5070946;28;20024;-64
2022/11/10 02:43:19;;;;;;;17.10;9.30;;;;;;;7.53;100.00;109413.03;5070286;28;20090;-64
2022/11/10 02:45:44;;;;;;;30.80;9.45;;;;;;;7.53;100.00;108718.59;5071001;28;20028;-64
2022/11/10 02:48:11;;;;;;;19.50;9.43;;;;;;;7.60;100.00;108036.63;5069576;28;20044;-64
2022/11/10 02:50:36;;;;;;;20.98;8.05;;;;;;;7.66;100.00;107351.09;5070695;28;20028;-64
2022/11/10 02:53:03;;;;;;;26.10;8.57;;;;;;;7.69;100.00;106662.97;5069506;28;20407;-64
2022/11/10 02:55:28;;;;;;;21.75;9.07;;;;;;;7.70;100.00;106664.72;5070705;28;20482;-64
2022/11/10 02:57:53;;;;;;;36.30;10.48;;;;;;;7.69;100.00;107010.09;5069233;28;20043;-64
2022/11/10 03:00:19;;;;;;;27.88;8.10;;;;;;;7.74;100.00;106670.81;5071538;28;20024;-64
2022/11/10 03:02:44;;;;;;;27.30;8.18;;;;;;;7.75;100.00;106672.56;5068951;28;20063;-64
2022/11/10 03:05:10;;;;;;;20.70;9.30;;;;;;;7.70;100.00;106664.72;5070816;28;20024;-64
2022/11/10 03:07:35;;;;;;;27.08;10.93;;;;;;;7.75;100.00;107019.72;5069397;28;20051;-64
2022/11/10 03:10:01;;;;;;;36.00;10.55;;;;;;;7.73;100.00;107710.59;5070622;28;20020;-64
2022/11/10 03:12:26;;;;;;;37.83;11.18;;;;;;;7.76;100.00;108410.41;5069733;28;20094;-64
2022/11/10 03:14:52;;;;;;;18.90;8.75;;;;;;;7.75;100.00;108756.78;5069258;28;20024;-64
2022/11/10 03:17:17;;;;;;;29.15;10.10;;;;;;;7.76;100.00;109452.41;5069538;28;20176;-64
2022/11/10 03:19:42;;;;;;;21.83;9.77;;;;;;;7.74;100.00;110144.50;5070665;28;20020;-64
2022/11/10 03:22:08;;;;;;;17.50;7.35;;;;;;;7.72;100.00;110835.81;5069707;28;20036;-63
2022/11/10 03:24:33;;;;;;;26.02;9.95;;;;;;;7.74;100.00;111533.53;5070269;28;20016;-63
2022/11/10 03:26:58;;;;;;;27.15;9.38;;;;;;;7.75;100.00;111535.38;5069216;28;20044;-63
2022/11/10 03:29:24;;;;;;;20.08;9.07;;;;;;;7.73;100.00;112226.84;5070290;28;20027;-63
2022/11/10 03:31:49;;;;;;;22.60;9.15;;;;;;;7.71;100.00;112571.72;5068545;28;20055;-63
2022/11/10 03:34:14;;;;;;;22.55;10.13;;;;;;;7.71;100.00;113613.75;5070512;28;20017;-63
2022/11/10 03:36:40;;;;;;;30.63;9.90;;;;;;;7.64;100.00;114297.06;5069281;28;20511;-63
2022/11/10 03:39:05;;;;;;;26.73;8.95;;;;;;;7.62;100.00;114642.00;5070373;28;20368;-63
2022/11/10 03:41:30;;;;;;;18.35;8.38;;;;;;;7.55;100.00;116019.94;5069382;28;20048;-63
2022/11/10 03:43:56;;;;;;;32.22;10.40;;;;;;;7.47;100.00;117743.97;5070245;28;20040;-63
2022/11/10 03:46:21;;;;;;;24.65;9.93;;;;;;;7.42;100.00;118082.19;5068854;28;20048;-64
2022/11/10 03:48:46;;;;;;;22.80;9.95;;;;;;;7.48;100.00;118093.84;5070393;28;20520;-64
2022/11/10 03:51:12;;;;;;;22.42;12.05;;;;;;;7.43;100.00;118433.06;5073289;28;20391;-63
2022/11/10 03:53:37;;;;;;;32.47;13.18;;;;;;;7.42;100.00;118430.13;5074012;28;20024;-63
2022/11/10 03:56:04;;;;;;;23.02;10.23;;;;;;;7.41;100.00;118428.22;5072861;28;20529;-62
2022/11/10 03:58:30;;;;;;;24.38;10.43;;;;;;;7.38;100.00;118074.47;5074008;28;20036;-63
2022/11/10 04:00:56;;;;;;;24.73;10.32;;;;;;;7.36;100.00;117722.72;5074121;28;20032;-63
2022/11/10 04:03:21;;;;;;;30.23;12.35;;;;;;;7.35;100.00;117372.94;5073119;28;20505;-63
2022/11/10 04:15:40;;;;;;;26.10;11.80;;;;;;;7.41;100.00;114254.97;5072879;28;20122;-62
2022/11/10 04:15:40;;;;;;;28.40;11.20;;;;;;;7.43;100.00;113216.00;5073418;28;20376;-62
2022/11/10 04:16:55;;;;;;;23.90;10.40;;;;;;;7.45;100.00;112525.63;5071934;28;20097;-61
2022/11/10 04:19:21;;;;;;;23.70;10.07;;;;;;;7.48;100.00;111140.56;5074573;28;20111;-61
2022/11/10 04:21:46;;;;;;;21.30;11.45;;;;;;;7.52;100.00;110105.78;5072388;28;20127;-61
2022/11/10 04:24:12;;;;;;;20.75;11.18;;;;;;;7.56;100.00;109071.13;5073303;28;20471;-61
2022/11/10 04:26:39;;;;;;;23.45;10.95;;;;;;;7.58;100.00;107685.94;5072823;28;20384;-61
2022/11/10 04:29:07;;;;;;;25.27;11.93;;;;;;;7.66;100.00;106309.81;5074326;28;20023;-61
2022/11/10 04:31:36;;;;;;;24.05;12.88;;;;;;;7.65;100.00;105614.03;5072316;28;20040;-61
2022/11/10 04:34:05;;;;;;;22.75;10.55;;;;;;;7.72;100.00;104239.09;5073511;28;20025;-61
2022/11/10 04:36:33;;;;;;;29.20;11.98;;;;;;;7.75;100.00;103203.53;5072436;28;20033;-61
2022/11/10 04:38:58;;;;;;;38.95;12.52;;;;;;;7.75;100.00;103202.69;5072861;28;20424;-61
2022/11/10 04:41:25;;;;;;;25.23;10.27;;;;;;;7.81;100.00;102519.09;5072506;28;20036;-61
2022/11/10 04:43:51;;;;;;;27.30;11.27;;;;;;;7.78;100.00;102860.91;5073726;28;20099;-61
2022/11/10 04:46:26;;;;;;;22.98;8.85;;;;;;;7.80;100.00;102864.25;5071719;28;20108;-61
2022/11/10 04:48:53;;;;;;;24.70;9.88;;;;;;;7.79;100.00;103556.28;5073681;28;20099;-61
2022/11/10 04:51:20;;;;;;;27.83;11.82;;;;;;;7.79;100.00;104250.13;5071711;28;20032;-61
2022/11/10 04:53:46;;;;;;;26.80;11.77;;;;;;;7.81;100.00;104947.53;5073080;28;20155;-62
2022/11/10 04:56:16;;;;;;;32.80;11.15;;;;;;;7.79;100.00;105985.25;5072075;28;20107;-62
2022/11/10 04:58:42;;;;;;;28.20;12.40;;;;;;;7.81;100.00;106683.03;5073144;28;20158;-62
2022/11/10 05:01:10;;;;;;;22.77;10.82;;;;;;;7.82;100.00;107379.19;5071664;28;20421;-62
2022/11/10 05:03:36;;;;;;;24.13;9.60;;;;;;;7.74;100.00;108754.13;5073397;28;20043;-62
2022/11/10 05:06:01;;;;;;;21.10;10.00;;;;;;;7.80;100.00;109459.53;5071042;28;20032;-62
2022/11/10 05:08:26;;;;;;;26.33;8.90;;;;;;;7.82;100.00;109810.56;5073159;28;20020;-64
2022/11/10 05:10:52;;;;;;;13.25;7.63;;;;;;;7.81;100.00;110503.69;5072525;28;20541;-65
2022/11/10 05:13:17;;;;;;;23.00;10.65;;;;;;;7.79;100.00;111195.09;5065774;28;20410;-63
2022/11/10 05:15:42;;;;;;;15.85;9.25;;;;;;;7.74;100.00;110839.41;5071564;28;20028;-62
2022/11/10 05:18:08;;;;;;;28.58;10.15;;;;;;;7.86;100.00;110512.72;5070980;28;20051;-62
2022/11/10 05:20:33;;;;;;;41.30;13.88;;;;;;;7.87;100.00;110514.53;5072063;28;20012;-62
2022/11/10 05:25:43;;;;;;;22.40;10.23;;;;;;;7.92;100.00;110871.19;5072783;28;20070;-60
2022/11/10 05:28:10;;;;;;;31.02;11.20;;;;;;;7.94;100.00;111222.41;5071418;28;20048;-60
2022/11/10 05:30:37;;;;;;;25.60;9.88;;;;;;;7.93;100.00;111915.88;5072089;28;20021;-60
2022/11/10 05:33:03;;;;;;;17.45;9.02;;;;;;;7.88;100.00;112948.94;5071278;28;20040;-60
2022/11/10 05:35:28;;;;;;;36.05;12.27;;;;;;;7.80;100.00;114326.09;5072798;28;20036;-60
2022/11/10 05:37:54;;;;;;;29.58;12.02;;;;;;;7.82;100.00;114677.69;5069107;28;20059;-60
2022/11/10 05:40:19;;;;;;;33.60;12.68;;;;;;;7.81;100.00;115718.56;5071697;28;20054;-60
2022/11/10 05:42:52;;;;;;;19.77;9.90;;;;;;;7.77;100.00;116755.81;5070403;28;20045;-60
2022/11/10 05:45:19;;;;;;;14.50;7.75;;;;;;;7.68;100.00;117782.56;5072156;28;20039;-60
2022/11/10 05:47:45;;;;;;;31.27;9.38;;;;;;;7.68;100.00;118826.84;5070802;28;20037;-60
2022/11/10 05:50:10;;;;;;;22.15;9.43;;;;;;;7.67;100.00;118477.72;5072360;28;20036;-60
2022/11/10 05:52:42;;;;;;;26.15;9.88;;;;;;;7.66;100.00;118474.81;5070799;28;20052;-60
2022/11/10 05:55:07;;;;;;;28.20;11.73;;;;;;;7.66;100.00;118126.75;5072470;28;20059;-60
2022/11/10 05:57:33;;;;;;;35.92;11.35;;;;;;;7.65;100.00;117777.75;5071103;28;20040;-60
2022/11/10 05:59:58;;;;;;;27.30;9.25;;;;;;;7.62;100.00;117772.94;5071776;28;20028;-59
2022/11/10 06:02:23;;;;;;;41.85;10.70;;;;;;;7.60;100.00;117072.13;5071006;28;20040;-60
2022/11/10 06:04:49;;;;;;;28.50;10.95;;;;;;;7.61;100.00;116378.22;5068338;28;20446;-60
2022/11/10 06:07:14;;;;;;;22.55;8.63;;;;;;;7.63;100.00;116035.09;5070020;28;20044;-60
2022/11/10 06:09:40;;;;;;;28.23;9.13;;;;;;;7.61;100.00;115682.50;5071864;28;20428;-60
2022/11/10 06:12:06;;;;;;;27.65;10.63;;;;;;;7.58;100.00;115676.84;5070056;28;20067;-59
2022/11/10 06:14:31;;;;;;;22.63;9.30;;;;;;;7.54;100.00;116365.84;5071658;28;20028;-59
2022/11/10 06:16:56;;;;;;;27.02;10.63;;;;;;;7.48;100.00;116354.41;5070427;28;20036;-59
2022/11/10 06:19:22;;;;;;;20.27;9.10;;;;;;;7.53;100.00;116363.94;5072067;28;20027;-60
2022/11/10 06:21:47;;;;;;;22.50;9.55;;;;;;;7.51;100.00;116360.13;5070085;28;20036;-59
2022/11/10 06:24:12;;;;;;;19.55;9.77;;;;;;;7.44;100.00;117043.38;5055946;28;20056;-60
2022/11/10 06:26:38;;;;;;;22.27;8.98;;;;;;;7.40;100.00;117383.53;5050195;28;20029;-59
2022/11/10 06:29:03;;;;;;;43.63;11.98;;;;;;;7.38;100.00;117378.72;5051729;28;20383;-59
2022/11/10 06:31:28;;;;;;;28.30;11.48;;;;;;;7.36;100.00;117374.84;5050322;28;20041;-59
2022/11/10 06:33:54;;;;;;;27.83;11.05;;;;;;;7.37;100.00;117028.97;5051921;28;20041;-60
2022/11/10 06:36:20;;;;;;;19.08;8.52;;;;;;;7.39;100.00;115642.72;5067957;28;20028;-60
2022/11/10 06:38:45;;;;;;;21.30;9.23;;;;;;;7.40;100.00;114600.69;5071213;28;20078;-59
2022/11/10 06:41:10;;;;;;;18.65;8.90;;;;;;;7.33;100.00;114240.00;5070051;28;20056;-59
2022/11/10 06:43:36;;;;;;;28.15;8.98;;;;;;;7.33;100.00;113544.97;5070550;28;20025;-60
2022/11/10 06:46:01;;;;;;;32.58;10.43;;;;;;;7.37;100.00;112858.31;5070202;28;20032;-58
2022/11/10 06:48:26;;;;;;;18.67;8.88;;;;;;;7.36;100.00;112508.13;5071550;28;20017;-59
2022/11/10 06:50:52;;;;;;;27.35;9.18;;;;;;;7.36;100.00;112508.13;5070822;28;20379;-59
2022/11/10 06:53:17;;;;;;;25.85;11.00;;;;;;;7.36;100.00;112508.13;5069579;28;20125;-59
2022/11/10 06:55:43;;;;;;;42.40;9.50;;;;;;;7.30;100.00;112846.34;5070781;28;20028;-59
2022/11/10 06:58:09;;;;;;;22.73;9.20;;;;;;;7.32;100.00;112154.31;5069865;28;20067;-59
2022/11/10 07:00:34;;;;;;;28.35;10.57;;;;;;;7.33;100.00;111460.56;5070926;28;20644;-59
2022/11/10 07:03:05;;;;;;;20.80;8.30;;;;;;;7.36;100.00;111118.72;5065374;28;20079;-60
2022/11/10 07:05:33;;;;;;;17.98;8.10;;;;;;;7.39;100.00;110429.59;5070571;28;20048;-59
2022/11/10 07:08:03;;;;;;;27.38;9.52;;;;;;;7.38;100.00;110080.56;5068723;28;20052;-59
2022/11/10 07:10:29;;;;;;;21.95;9.60;;;;;;;7.34;100.00;110421.47;5070867;28;20083;-59
2022/11/10 07:12:58;;;;;;;20.92;9.18;;;;;;;7.36;100.00;109730.66;5069365;28;20036;-59
2022/11/10 07:15:24;;;;;;;33.25;10.23;;;;;;;7.43;100.00;109048.84;5070673;28;20027;-59
2022/11/10 07:17:49;;;;;;;40.33;10.15;;;;;;;7.44;100.00;108702.56;5069222;28;20044;-59
2022/11/10 07:20:14;;;;;;;25.08;8.27;;;;;;;7.49;100.00;108363.44;5063822;28;20040;-59
2022/11/10 07:22:40;;;;;;;15.57;8.55;;;;;;;7.51;100.00;108020.72;5048944;28;20037;-59
2022/11/10 07:25:05;;;;;;;34.72;10.88;;;;;;;7.41;100.00;108003.09;5049983;28;20387;-59
2022/11/10 07:27:31;;;;;;;26.25;9.38;;;;;;;7.59;100.00;107340.56;5049432;28;20040;-59
2022/11/10 07:29:56;;;;;;;21.27;9.13;;;;;;;7.68;100.00;106660.38;5050279;28;20025;-60
2022/11/10 07:32:21;;;;;;;28.90;9.82;;;;;;;7.70;100.00;106663.88;5049374;28;20096;-59
2022/11/10 07:34:47;;;;;;;17.23;8.00;;;;;;;7.75;100.00;106325.44;5050508;28;20081;-59
2022/11/10 07:37:12;;;;;;;25.85;8.88;;;;;;;7.80;100.00;106680.41;5048964;28;20047;-60
2022/11/10 07:39:37;;;;;;;23.73;8.90;;;;;;;7.86;100.00;106691.72;5050461;28;20028;-60
2022/11/10 07:42:03;;;;;;;29.65;10.68;;;;;;;7.92;100.00;107048.56;5049359;28;20036;-60
2022/11/10 07:44:28;;;;;;;27.30;10.98;;;;;;;7.96;100.00;107402.00;5061198;28;20031;-60
2022/11/10 07:46:53;;;;;;;26.88;10.18;;;;;;;8.04;100.00;107763.41;5068773;28;20037;-60
2022/11/10 07:49:19;;;;;;;19.10;8.77;;;;;;;8.06;100.00;108461.78;5070655;28;20021;-60
2022/11/10 07:51:44;;;;;;;20.98;8.45;;;;;;;8.18;100.00;109178.19;5068222;28;20043;-59
2022/11/10 07:54:09;;;;;;;22.00;10.30;;;;;;;8.25;100.00;109886.00;5070672;28;20066;-60
2022/11/10 07:56:35;;;;;;;21.00;7.85;;;;;;;8.34;100.00;111291.56;5068954;28;20037;-60
2022/11/10 07:59:00;;;;;;;25.77;11.25;;;;;;;8.43;100.00;112699.81;5069804;28;20095;-60
2022/11/10 08:01:26;;;;;;;33.17;9.02;;;;;;;8.45;100.00;115140.50;5069459;28;20098;-59
2022/11/10 08:03:51;;;;;;;55.22;9.55;;;;;;;8.56;100.00;117948.72;5070309;28;20020;-59
2022/11/10 08:06:16;;;;;;;32.85;10.27;;;;;;;8.60;100.00;120744.03;5068464;28;20071;-59
2022/11/10 08:08:42;;;;;;;21.30;9.30;;;;;;;8.64;100.00;123543.53;5069469;28;20025;-59
2022/11/10 08:11:07;;;;;;;33.45;10.60;;;;;;;8.72;100.00;126004.28;5068771;28;20025;-59
2022/11/10 08:13:32;;;;;;;22.70;9.02;;;;;;;8.80;100.00;129516.03;5070293;28;20479;-60
2022/11/10 08:15:58;;;;;;;14.95;7.28;;;;;;;8.88;100.00;131981.81;5070282;28;20094;-60
2022/11/10 08:18:24;;;;;;;27.60;8.82;;;;;;;8.94;100.00;135494.75;5069056;28;20044;-60
2022/11/10 08:20:50;;;;;;;26.08;7.25;;;;;;;9.04;100.00;139020.56;5070174;28;20657;-60
2022/11/10 08:23:16;;;;;;;24.42;7.72;;;;;;;9.13;100.00;142899.03;5069028;28;20044;-60
2022/11/10 08:25:42;;;;;;;25.08;7.90;;;;;;;9.33;100.00;146810.09;5070367;28;20029;-59
2022/11/10 08:28:16;;;;;;;24.48;7.88;;;;;;;9.38;100.00;156897.97;5064264;28;20048;-59
2022/11/10 08:30:44;;;;;;;24.40;9.55;;;;;;;9.53;100.00;162894.72;5069404;28;20490;-59
2022/11/10 08:33:11;;;;;;;17.35;6.90;;;;;;;9.75;100.00;163114.03;5068905;28;20055;-59
2022/11/10 08:35:39;;;;;;;18.23;6.40;;;;;;;9.94;100.00;163163.97;5071151;28;20028;-59
2022/11/10 08:38:11;;;;;;;18.05;6.78;;;;;;;10.29;100.00;163254.38;5072270;28;20036;-59
2022/11/10 08:40:38;;;;;;;18.30;7.18;;;;;;;10.39;100.00;163280.06;5073663;28;20359;-59
2022/11/10 08:43:07;;;;;;;27.38;7.50;;;;;;;10.48;100.00;163305.69;5072162;28;20044;-59
2022/11/10 08:45:34;;;;;;;12.65;5.95;;;;;;;10.65;100.00;163347.56;5073998;28;20024;-59
2022/11/10 08:48:04;;;;;;;58.75;9.52;;;;;;;10.76;100.00;163378.56;5071518;28;20098;-59
2022/11/10 08:50:30;;;;;;;11.25;5.43;;;;;;;10.93;100.00;163421.78;5071791;28;20522;-60
2022/11/10 08:52:55;;;;;;;16.92;7.45;;;;;;;10.98;100.00;163435.31;5070278;28;20040;-60
2022/11/10 08:55:21;;;;;;;17.17;7.13;;;;;;;10.94;100.00;163424.50;5073103;28;20028;-60
2022/11/10 08:57:47;;;;;;;21.65;6.53;;;;;;;10.99;100.00;163437.97;5071062;28;20124;-60
2022/11/10 09:00:14;;;;;;;23.02;5.05;;;;;;;10.88;100.00;163408.28;5072943;28;20031;-60
2022/11/10 09:02:39;;;;;;;18.85;5.75;;;;;;;11.13;100.00;163473.13;5071077;28;20044;-60
2022/11/10 09:05:05;;;;;;;29.33;8.57;;;;;;;11.30;100.00;163519.00;5073054;28;20078;-60
2022/11/10 09:07:31;;;;;;;33.70;10.60;;;;;;;11.22;100.00;163498.75;5071713;28;20118;-59
2022/11/10 09:09:56;;;;;;;20.75;6.90;;;;;;;11.23;100.00;163500.09;5073023;28;20067;-60
2022/11/10 09:12:21;;;;;;;16.60;6.05;;;;;;;11.32;100.00;163524.41;5071673;28;20380;-60
2022/11/10 09:14:47;;;;;;;17.35;6.95;;;;;;;11.47;100.00;163562.22;5073161;28;20051;-60
2022/11/10 09:17:12;;;;;;;29.13;8.20;;;;;;;11.55;100.00;163583.84;5072007;28;20043;-59
2022/11/10 09:19:37;;;;;;;15.27;5.63;;;;;;;11.48;100.00;163566.25;5072697;28;20021;-59
2022/11/10 09:22:03;;;;;;;14.43;6.65;;;;;;;11.49;100.00;163567.63;5071894;28;20524;-60
2022/11/10 09:24:28;;;;;;;19.27;7.20;;;;;;;11.72;100.00;163629.78;5073113;28;20032;-60
2022/11/10 09:26:54;;;;;;;28.95;8.13;;;;;;;11.83;100.00;163656.75;5071208;28;20036;-60
2022/11/10 09:29:20;;;;;;;26.63;6.10;;;;;;;11.96;100.00;163691.88;5073165;28;20348;-60
2022/11/10 09:31:46;;;;;;;21.27;7.90;;;;;;;12.51;100.00;163835.16;5071222;28;20495;-60
2022/11/10 09:34:11;;;;;;;25.77;6.30;;;;;;;12.69;100.00;163883.84;5072620;28;20086;-59
2022/11/10 09:36:39;;;;;;;15.90;6.32;;;;;;;12.72;100.00;163890.59;5071633;28;20041;-59
2022/11/10 09:39:05;;;;;;;22.50;7.93;;;;;;;12.96;100.00;163954.13;5073177;28;20028;-59
2022/11/10 09:41:30;;;;;;;17.92;5.22;;;;;;;12.85;100.00;163924.34;5071207;28;20120;-60
2022/11/10 09:44:04;;;;;;;19.20;5.97;;;;;;;12.74;100.00;163894.63;5072680;28;20471;-59
2022/11/10 09:46:37;;;;;;;18.20;5.07;;;;;;;13.10;100.00;163989.25;5070598;28;20040;-59
2022/11/10 09:49:09;;;;;;;22.58;7.47;;;;;;;13.07;100.00;163981.16;5070953;28;20384;-60
2022/11/10 09:51:39;;;;;;;15.85;7.15;;;;;;;12.93;100.00;163945.97;5070976;28;20063;-59
2022/11/10 09:54:27;;;;;;;16.30;6.10;;;;;;;12.95;100.00;163951.41;5072498;28;20031;-60
2022/11/10 09:56:59;;;;;;;21.83;6.70;;;;;;;13.17;100.00;164008.19;5067385;28;20037;-60
2022/11/10 09:59:27;;;;;;;20.63;6.63;;;;;;;13.12;100.00;163994.66;5072594;28;20032;-60
2022/11/10 10:02:13;;;;;;;25.27;7.07;;;;;;;13.23;100.00;164024.38;5070664;28;20029;-60
2022/11/10 10:05:03;;;;;;;27.13;7.55;;;;;;;12.77;100.00;163902.75;5071595;28;20041;-60
2022/11/10 10:07:47;;;;;;;20.27;6.72;;;;;;;13.17;100.00;164008.19;5070616;28;20044;-60
2022/11/10 10:10:34;;;;;;;17.83;6.75;;;;;;;13.43;100.00;164075.84;5072328;28;20021;-60
2022/11/10 10:13:30;;;;;;;13.02;7.18;;;;;;;13.42;100.00;164073.13;5070131;28;20032;-60
2022/11/10 10:15:56;;;;;;;13.25;5.75;;;;;;;13.40;100.00;164067.72;5071437;28;20915;-60
2022/11/10 10:18:21;;;;;;;19.88;5.97;;;;;;;13.62;100.00;164127.22;5070373;28;20119;-60
2022/11/10 10:21:03;;;;;;;25.30;6.80;;;;;;;13.63;100.00;164129.94;5071498;28;20171;-60
2022/11/10 10:23:46;;;;;;;18.40;6.07;;;;;;;13.48;100.00;164089.34;5070698;28;20059;-60
2022/11/10 10:26:16;;;;;;;36.80;8.02;;;;;;;13.42;100.00;164073.13;5070336;28;20085;-59
2022/11/10 10:28:45;;;;;;;14.30;5.30;;;;;;;13.63;100.00;164129.94;5071842;28;20063;-60
2022/11/10 10:31:13;;;;;;;;;;;;;;;13.63;100.00;164129.94;5071175;28;20078;-60
2022/11/10 10:33:39;;;;;;;16.15;4.43;;;;;;;13.67;100.00;164138.00;5071160;28;20351;-60
2022/11/10 10:36:13;;;;;;;21.67;6.78;;;;;;;13.71;100.00;164148.84;5070300;28;20031;-60
2022/11/10 10:38:41;;;;;;;21.88;7.78;;;;;;;13.70;100.00;164146.16;5071643;28;20024;-60
2022/11/10 10:41:15;;;;;;;18.08;6.15;;;;;;;13.74;100.00;164156.94;5069925;28;20017;-60
2022/11/10 10:43:46;;;;;;;17.08;5.03;;;;;;;13.63;100.00;164129.94;5069257;28;20032;-60
2022/11/10 10:46:18;;;;;;;16.27;5.30;;;;;;;13.80;100.00;164173.22;5070451;28;20044;-60
2022/11/10 10:48:43;;;;;;;18.23;6.20;;;;;;;14.10;100.00;164251.66;5070799;28;20101;-60
2022/11/10 10:51:09;;;;;;;14.75;5.45;;;;;;;14.24;100.00;164288.16;5069651;28;20025;-60
2022/11/10 10:53:46;;;;;;;19.90;5.57;;;;;;;14.16;100.00;164267.88;5071246;28;20033;-60
2022/11/10 10:56:23;;;;;;;15.55;4.63;;;;;;;14.06;100.00;164240.81;5069365;28;20028;-60
2022/11/10 10:58:52;;;;;;;16.75;6.68;;;;;;;13.87;100.00;164192.16;5071041;28;20028;-60
2022/11/10 11:01:20;;;;;;;21.75;6.18;;;;;;;13.86;100.00;164188.06;5069733;28;20103;-60
2022/11/10 11:03:50;;;;;;;18.07;6.77;;;;;;;13.70;100.00;164147.47;5070609;28;20420;-60
2022/11/10 11:06:15;;;;;;;13.95;5.60;;;;;;;13.60;100.00;164121.78;5069618;28;20458;-60
2022/11/10 11:09:14;;;;;;;17.08;6.90;;;;;;;13.76;100.00;164163.75;5070826;28;20103;-60
2022/11/10 11:11:42;;;;;;;29.42;6.20;;;;;;;13.59;100.00;164119.09;5067710;28;20048;-60
2022/11/10 11:14:20;;;;;;;20.65;7.05;;;;;;;13.65;100.00;164133.97;5071141;28;20025;-60
2022/11/10 11:16:51;;;;;;;18.20;6.47;;;;;;;13.49;100.00;164092.06;5067880;28;20047;-60
2022/11/10 11:19:20;;;;;;;15.55;5.32;;;;;;;13.76;100.00;164163.75;5070485;28;20029;-60
2022/11/10 11:22:42;;;;;;;22.08;7.00;;;;;;;13.59;100.00;164119.09;5069205;28;20709;-60
2022/11/10 11:25:29;;;;;;;17.65;4.78;;;;;;;13.84;100.00;164184.00;5058328;28;20410;-60
2022/11/10 11:28:21;;;;;;;42.97;7.50;;;;;;;13.99;100.00;164221.88;5069223;28;20515;-60